sensor_id;sensor_type;location;lat;lon;timestamp;temperature;humidity
52267;DHT22;38223;50.940;4.034;2024-03-23T00:53:03;10.20;99.90
52267;DHT22;38223;50.940;4.034;2024-03-23T00:55:32;10.20;99.90
52267;DHT22;38223;50.940;4.034;2024-03-23T00:58:01;10.30;99.90
52267;DHT22;38223;50.940;4.034;2024-03-23T01:00:34;10.20;99.90
52267;DHT22;38223;50.940;4.034;2024-03-23T01:03:03;10.20;99.90
52267;DHT22;38223;50.940;4.034;2024-03-23T01:05:31;10.00;99.90
52267;DHT22;38223;50.940;4.034;2024-03-23T01:07:59;10.00;99.90
52267;DHT22;38223;50.940;4.034;2024-03-23T01:10:27;9.90;99.90
52267;DHT22;38223;50.940;4.034;2024-03-23T01:12:56;9.90;99.90
52267;DHT22;38223;50.940;4.034;2024-03-23T01:15:25;9.80;99.90
52267;DHT22;38223;50.940;4.034;2024-03-23T01:17:55;9.70;99.90
52267;DHT22;38223;50.940;4.034;2024-03-23T01:20:23;9.70;99.90
52267;DHT22;38223;50.940;4.034;2024-03-23T01:22:52;9.70;99.90
52267;DHT22;38223;50.940;4.034;2024-03-23T01:25:24;9.60;99.90
52267;DHT22;38223;50.940;4.034;2024-03-23T01:27:51;9.50;99.90
52267;DHT22;38223;50.940;4.034;2024-03-23T01:30:21;9.50;99.90
52267;DHT22;38223;50.940;4.034;2024-03-23T01:32:54;9.50;99.90
52267;DHT22;38223;50.940;4.034;2024-03-23T01:35:25;9.50;99.90
52267;DHT22;38223;50.940;4.034;2024-03-23T01:37:53;9.50;99.90
52267;DHT22;38223;50.940;4.034;2024-03-23T01:40:24;9.50;99.90
52267;DHT22;38223;50.940;4.034;2024-03-23T01:42:56;9.50;99.90
52267;DHT22;38223;50.940;4.034;2024-03-23T01:45:25;9.50;99.90
52267;DHT22;38223;50.940;4.034;2024-03-23T01:47:55;9.60;99.90
52267;DHT22;38223;50.940;4.034;2024-03-23T01:50:28;9.60;99.90
52267;DHT22;38223;50.940;4.034;2024-03-23T01:53:04;9.60;99.90
52267;DHT22;38223;50.940;4.034;2024-03-23T01:55:29;9.50;99.90
52267;DHT22;38223;50.940;4.034;2024-03-23T01:57:57;9.50;99.90
52267;DHT22;38223;50.940;4.034;2024-03-23T02:00:26;9.70;99.90
52267;DHT22;38223;50.940;4.034;2024-03-23T02:02:56;9.80;99.90
52267;DHT22;38223;50.940;4.034;2024-03-23T02:05:28;9.70;99.90
52267;DHT22;38223;50.940;4.034;2024-03-23T02:08:00;9.60;99.90
52267;DHT22;38223;50.940;4.034;2024-03-23T02:10:28;9.60;99.90
52267;DHT22;38223;50.940;4.034;2024-03-23T02:12:56;9.50;99.90
52267;DHT22;38223;50.940;4.034;2024-03-23T02:15:27;9.60;99.90
52267;DHT22;38223;50.940;4.034;2024-03-23T02:17:57;9.40;99.90
52267;DHT22;38223;50.940;4.034;2024-03-23T02:20:25;9.40;99.90
52267;DHT22;38223;50.940;4.034;2024-03-23T02:22:56;9.40;99.90
52267;DHT22;38223;50.940;4.034;2024-03-23T02:25:24;9.30;99.90
52267;DHT22;38223;50.940;4.034;2024-03-23T02:27:53;9.40;99.90
52267;DHT22;38223;50.940;4.034;2024-03-23T02:30:23;9.60;99.90
52267;DHT22;38223;50.940;4.034;2024-03-23T02:32:54;9.50;99.90
52267;DHT22;38223;50.940;4.034;2024-03-23T02:35:23;9.50;99.90
52267;DHT22;38223;50.940;4.034;2024-03-23T02:37:51;9.40;99.90
52267;DHT22;38223;50.940;4.034;2024-03-23T02:40:23;9.40;99.90
52267;DHT22;38223;50.940;4.034;2024-03-23T02:42:51;9.30;99.90
52267;DHT22;38223;50.940;4.034;2024-03-23T02:45:20;9.30;99.90
52267;DHT22;38223;50.940;4.034;2024-03-23T02:47:49;9.40;99.90
52267;DHT22;38223;50.940;4.034;2024-03-23T02:50:21;9.40;99.90
52267;DHT22;38223;50.940;4.034;2024-03-23T02:52:49;9.40;99.90
52267;DHT22;38223;50.940;4.034;2024-03-23T02:55:18;9.40;99.90
52267;DHT22;38223;50.940;4.034;2024-03-23T02:57:49;9.30;99.90
52267;DHT22;38223;50.940;4.034;2024-03-23T03:00:17;9.30;99.90
52267;DHT22;38223;50.940;4.034;2024-03-23T03:02:46;9.40;99.90
52267;DHT22;38223;50.940;4.034;2024-03-23T03:05:15;9.40;99.90
52267;DHT22;38223;50.940;4.034;2024-03-23T03:07:43;9.40;99.90
52267;DHT22;38223;50.940;4.034;2024-03-23T03:10:13;9.40;99.90
52267;DHT22;38223;50.940;4.034;2024-03-23T03:12:42;9.50;99.90
52267;DHT22;38223;50.940;4.034;2024-03-23T03:15:11;9.50;99.90
52267;DHT22;38223;50.940;4.034;2024-03-23T03:17:43;9.50;99.90
52267;DHT22;38223;50.940;4.034;2024-03-23T03:20:15;9.50;99.90
52267;DHT22;38223;50.940;4.034;2024-03-23T03:22:42;9.60;99.90
52267;DHT22;38223;50.940;4.034;2024-03-23T03:25:10;9.60;99.90
52267;DHT22;38223;50.940;4.034;2024-03-23T03:27:42;9.60;99.90
52267;DHT22;38223;50.940;4.034;2024-03-23T03:30:12;9.50;99.90
52267;DHT22;38223;50.940;4.034;2024-03-23T03:32:46;9.60;99.90
52267;DHT22;38223;50.940;4.034;2024-03-23T03:35:14;9.50;99.90
52267;DHT22;38223;50.940;4.034;2024-03-23T03:37:43;9.50;99.90
52267;DHT22;38223;50.940;4.034;2024-03-23T03:40:11;9.40;99.90
52267;DHT22;38223;50.940;4.034;2024-03-23T03:42:42;9.40;99.90
52267;DHT22;38223;50.940;4.034;2024-03-23T03:45:17;9.40;99.90
52267;DHT22;38223;50.940;4.034;2024-03-23T03:47:45;9.30;99.90
52267;DHT22;38223;50.940;4.034;2024-03-23T03:50:13;9.20;99.90
52267;DHT22;38223;50.940;4.034;2024-03-23T03:52:46;9.20;99.90
52267;DHT22;38223;50.940;4.034;2024-03-23T03:55:14;9.10;99.90
52267;DHT22;38223;50.940;4.034;2024-03-23T03:57:43;9.20;99.90
52267;DHT22;38223;50.940;4.034;2024-03-23T04:00:12;9.20;99.90
52267;DHT22;38223;50.940;4.034;2024-03-23T04:02:41;9.20;99.90
52267;DHT22;38223;50.940;4.034;2024-03-23T04:05:13;9.10;99.90
52267;DHT22;38223;50.940;4.034;2024-03-23T04:07:43;9.10;99.90
52267;DHT22;38223;50.940;4.034;2024-03-23T04:10:14;9.10;99.90
52267;DHT22;38223;50.940;4.034;2024-03-23T04:12:44;9.30;99.90
52267;DHT22;38223;50.940;4.034;2024-03-23T04:15:15;9.30;99.90
52267;DHT22;38223;50.940;4.034;2024-03-23T04:17:48;9.30;99.90
52267;DHT22;38223;50.940;4.034;2024-03-23T04:20:21;9.30;99.90
52267;DHT22;38223;50.940;4.034;2024-03-23T04:22:50;9.00;99.90
52267;DHT22;38223;50.940;4.034;2024-03-23T04:25:22;8.90;99.90
52267;DHT22;38223;50.940;4.034;2024-03-23T04:27:51;8.70;99.90
52267;DHT22;38223;50.940;4.034;2024-03-23T04:30:22;8.70;99.90
52267;DHT22;38223;50.940;4.034;2024-03-23T04:32:54;8.80;99.90
52267;DHT22;38223;50.940;4.034;2024-03-23T04:35:22;8.80;99.90
52267;DHT22;38223;50.940;4.034;2024-03-23T04:37:51;8.70;99.90
52267;DHT22;38223;50.940;4.034;2024-03-23T04:40:23;8.60;99.90
52267;DHT22;38223;50.940;4.034;2024-03-23T04:42:53;8.70;99.90
52267;DHT22;38223;50.940;4.034;2024-03-23T04:45:28;8.70;99.90
52267;DHT22;38223;50.940;4.034;2024-03-23T04:47:56;8.70;99.90
52267;DHT22;38223;50.940;4.034;2024-03-23T04:50:25;8.80;99.90
52267;DHT22;38223;50.940;4.034;2024-03-23T04:52:56;8.80;99.90
52267;DHT22;38223;50.940;4.034;2024-03-23T04:55:24;8.90;99.90
52267;DHT22;38223;50.940;4.034;2024-03-23T04:57:53;8.90;99.90
52267;DHT22;38223;50.940;4.034;2024-03-23T05:00:21;9.00;99.90
52267;DHT22;38223;50.940;4.034;2024-03-23T05:02:52;9.10;99.90
52267;DHT22;38223;50.940;4.034;2024-03-23T05:05:22;9.10;99.90
52267;DHT22;38223;50.940;4.034;2024-03-23T05:07:50;9.10;99.90
52267;DHT22;38223;50.940;4.034;2024-03-23T05:10:20;9.00;99.90
52267;DHT22;38223;50.940;4.034;2024-03-23T05:12:53;9.10;99.90
52267;DHT22;38223;50.940;4.034;2024-03-23T05:15:24;9.20;99.90
52267;DHT22;38223;50.940;4.034;2024-03-23T05:17:52;9.00;99.90
52267;DHT22;38223;50.940;4.034;2024-03-23T05:20:21;8.90;99.90
52267;DHT22;38223;50.940;4.034;2024-03-23T05:22:50;8.80;99.90
52267;DHT22;38223;50.940;4.034;2024-03-23T05:25:19;8.80;99.90
52267;DHT22;38223;50.940;4.034;2024-03-23T05:27:48;8.80;99.90
52267;DHT22;38223;50.940;4.034;2024-03-23T05:30:17;8.70;99.90
52267;DHT22;38223;50.940;4.034;2024-03-23T05:32:49;8.90;99.90
52267;DHT22;38223;50.940;4.034;2024-03-23T05:35:21;8.90;99.90
52267;DHT22;38223;50.940;4.034;2024-03-23T05:37:49;8.80;99.90
52267;DHT22;38223;50.940;4.034;2024-03-23T05:40:17;8.80;99.90
52267;DHT22;38223;50.940;4.034;2024-03-23T05:42:50;8.80;99.90
52267;DHT22;38223;50.940;4.034;2024-03-23T05:45:18;8.80;99.90
52267;DHT22;38223;50.940;4.034;2024-03-23T05:47:49;8.80;99.90
52267;DHT22;38223;50.940;4.034;2024-03-23T05:50:18;8.80;99.90
52267;DHT22;38223;50.940;4.034;2024-03-23T05:52:47;8.90;99.90
52267;DHT22;38223;50.940;4.034;2024-03-23T05:55:18;8.80;99.90
52267;DHT22;38223;50.940;4.034;2024-03-23T05:57:47;8.70;99.90
52267;DHT22;38223;50.940;4.034;2024-03-23T06:00:17;8.70;99.90
52267;DHT22;38223;50.940;4.034;2024-03-23T06:02:46;8.80;99.90
52267;DHT22;38223;50.940;4.034;2024-03-23T06:05:18;8.70;99.90
52267;DHT22;38223;50.940;4.034;2024-03-23T06:07:48;8.80;99.90
52267;DHT22;38223;50.940;4.034;2024-03-23T06:10:19;8.70;99.90
52267;DHT22;38223;50.940;4.034;2024-03-23T06:12:46;8.70;99.90
52267;DHT22;38223;50.940;4.034;2024-03-23T06:15:18;8.70;99.90
52267;DHT22;38223;50.940;4.034;2024-03-23T06:17:46;8.80;99.90
52267;DHT22;38223;50.940;4.034;2024-03-23T06:20:16;8.70;99.90
52267;DHT22;38223;50.940;4.034;2024-03-23T06:22:48;8.50;99.90
52267;DHT22;38223;50.940;4.034;2024-03-23T06:25:20;8.50;99.90
52267;DHT22;38223;50.940;4.034;2024-03-23T06:27:49;8.50;99.90
52267;DHT22;38223;50.940;4.034;2024-03-23T06:30:21;8.50;99.90
52267;DHT22;38223;50.940;4.034;2024-03-23T06:32:48;8.40;99.90
52267;DHT22;38223;50.940;4.034;2024-03-23T06:35:20;8.40;99.90
52267;DHT22;38223;50.940;4.034;2024-03-23T06:37:48;8.50;99.90
52267;DHT22;38223;50.940;4.034;2024-03-23T06:40:20;8.30;99.90
52267;DHT22;38223;50.940;4.034;2024-03-23T06:42:48;8.00;99.90
52267;DHT22;38223;50.940;4.034;2024-03-23T06:45:21;7.60;99.90
52267;DHT22;38223;50.940;4.034;2024-03-23T06:47:49;7.60;99.90
52267;DHT22;38223;50.940;4.034;2024-03-23T06:50:19;7.70;99.90
52267;DHT22;38223;50.940;4.034;2024-03-23T06:52:50;7.70;99.90
52267;DHT22;38223;50.940;4.034;2024-03-23T06:55:22;7.50;99.90
52267;DHT22;38223;50.940;4.034;2024-03-23T06:57:52;7.50;99.90
52267;DHT22;38223;50.940;4.034;2024-03-23T07:00:24;7.50;99.90
52267;DHT22;38223;50.940;4.034;2024-03-23T07:02:54;7.40;99.90
52267;DHT22;38223;50.940;4.034;2024-03-23T07:05:23;7.40;99.90
52267;DHT22;38223;50.940;4.034;2024-03-23T07:07:55;7.40;99.90
52267;DHT22;38223;50.940;4.034;2024-03-23T07:10:24;7.50;99.90
52267;DHT22;38223;50.940;4.034;2024-03-23T07:12:56;7.60;99.90
52267;DHT22;38223;50.940;4.034;2024-03-23T07:15:28;7.70;99.90
52267;DHT22;38223;50.940;4.034;2024-03-23T07:17:55;7.70;99.90
52267;DHT22;38223;50.940;4.034;2024-03-23T07:20:27;7.70;99.90
52267;DHT22;38223;50.940;4.034;2024-03-23T07:22:55;7.80;99.90
52267;DHT22;38223;50.940;4.034;2024-03-23T07:25:26;7.80;99.90
52267;DHT22;38223;50.940;4.034;2024-03-23T07:27:55;7.90;99.90
52267;DHT22;38223;50.940;4.034;2024-03-23T07:30:27;7.90;99.90
52267;DHT22;38223;50.940;4.034;2024-03-23T07:32:58;8.00;99.90
52267;DHT22;38223;50.940;4.034;2024-03-23T07:35:29;8.00;99.90
52267;DHT22;38223;50.940;4.034;2024-03-23T07:37:59;7.90;99.90
52267;DHT22;38223;50.940;4.034;2024-03-23T07:40:30;8.00;99.90
52267;DHT22;38223;50.940;4.034;2024-03-23T07:43:02;8.10;99.90
52267;DHT22;38223;50.940;4.034;2024-03-23T07:45:31;8.00;99.90
52267;DHT22;38223;50.940;4.034;2024-03-23T07:48:05;8.00;99.90
52267;DHT22;38223;50.940;4.034;2024-03-23T07:50:35;8.00;99.90
52267;DHT22;38223;50.940;4.034;2024-03-23T07:53:06;7.90;99.90
52267;DHT22;38223;50.940;4.034;2024-03-23T07:55:37;7.90;99.90
52267;DHT22;38223;50.940;4.034;2024-03-23T07:58:06;8.00;99.90
52267;DHT22;38223;50.940;4.034;2024-03-23T08:00:34;8.00;99.90
52267;DHT22;38223;50.940;4.034;2024-03-23T08:03:04;8.00;99.90
52267;DHT22;38223;50.940;4.034;2024-03-23T08:05:37;8.10;99.90
52267;DHT22;38223;50.940;4.034;2024-03-23T08:08:09;8.20;99.90
52267;DHT22;38223;50.940;4.034;2024-03-23T08:10:47;8.30;99.90
52267;DHT22;38223;50.940;4.034;2024-03-23T08:13:10;8.30;99.90
52267;DHT22;38223;50.940;4.034;2024-03-23T08:15:39;8.20;99.90
52267;DHT22;38223;50.940;4.034;2024-03-23T08:18:08;8.10;99.90
52267;DHT22;38223;50.940;4.034;2024-03-23T08:20:36;8.10;99.90
52267;DHT22;38223;50.940;4.034;2024-03-23T08:23:06;8.10;99.90
52267;DHT22;38223;50.940;4.034;2024-03-23T08:25:36;8.10;99.90
52267;DHT22;38223;50.940;4.034;2024-03-23T08:28:08;8.10;99.90
52267;DHT22;38223;50.940;4.034;2024-03-23T08:30:35;8.10;99.90
52267;DHT22;38223;50.940;4.034;2024-03-23T08:33:04;8.30;99.90
52267;DHT22;38223;50.940;4.034;2024-03-23T08:35:36;8.40;99.90
52267;DHT22;38223;50.940;4.034;2024-03-23T08:38:04;8.50;99.90
52267;DHT22;38223;50.940;4.034;2024-03-23T08:40:33;8.50;99.90
52267;DHT22;38223;50.940;4.034;2024-03-23T08:43:01;8.50;99.90
52267;DHT22;38223;50.940;4.034;2024-03-23T08:45:30;8.40;99.90
52267;DHT22;38223;50.940;4.034;2024-03-23T08:47:59;8.30;99.90
52267;DHT22;38223;50.940;4.034;2024-03-23T08:50:31;8.50;99.90
52267;DHT22;38223;50.940;4.034;2024-03-23T08:52:59;8.60;99.90
52267;DHT22;38223;50.940;4.034;2024-03-23T08:55:28;8.80;99.90
52267;DHT22;38223;50.940;4.034;2024-03-23T08:57:56;8.80;99.90
52267;DHT22;38223;50.940;4.034;2024-03-23T09:00:29;8.80;99.90
52267;DHT22;38223;50.940;4.034;2024-03-23T09:02:57;8.70;99.90
52267;DHT22;38223;50.940;4.034;2024-03-23T09:05:25;8.80;99.90
52267;DHT22;38223;50.940;4.034;2024-03-23T09:07:54;8.70;99.90
52267;DHT22;38223;50.940;4.034;2024-03-23T09:10:23;8.60;99.90
52267;DHT22;38223;50.940;4.034;2024-03-23T09:12:51;8.60;99.90
52267;DHT22;38223;50.940;4.034;2024-03-23T09:15:20;8.60;99.90
52267;DHT22;38223;50.940;4.034;2024-03-23T09:17:48;8.70;99.90
52267;DHT22;38223;50.940;4.034;2024-03-23T09:20:17;8.60;99.90
52267;DHT22;38223;50.940;4.034;2024-03-23T09:22:49;8.80;99.90
52267;DHT22;38223;50.940;4.034;2024-03-23T09:25:17;8.70;99.90
52267;DHT22;38223;50.940;4.034;2024-03-23T09:27:46;8.80;99.90
52267;DHT22;38223;50.940;4.034;2024-03-23T09:30:16;9.00;99.90
52267;DHT22;38223;50.940;4.034;2024-03-23T09:32:45;9.00;99.90
52267;DHT22;38223;50.940;4.034;2024-03-23T09:35:15;9.10;99.90
52267;DHT22;38223;50.940;4.034;2024-03-23T09:37:45;9.00;99.90
52267;DHT22;38223;50.940;4.034;2024-03-23T09:40:13;9.10;99.90
52267;DHT22;38223;50.940;4.034;2024-03-23T09:42:42;9.30;99.90
52267;DHT22;38223;50.940;4.034;2024-03-23T09:45:17;9.40;99.90
52267;DHT22;38223;50.940;4.034;2024-03-23T09:47:44;9.30;99.90
52267;DHT22;38223;50.940;4.034;2024-03-23T09:50:12;9.30;99.90
52267;DHT22;38223;50.940;4.034;2024-03-23T09:52:41;9.20;99.90
52267;DHT22;38223;50.940;4.034;2024-03-23T09:55:09;9.00;99.90
52267;DHT22;38223;50.940;4.034;2024-03-23T09:57:38;8.90;99.90
52267;DHT22;38223;50.940;4.034;2024-03-23T10:00:08;8.90;99.90
52267;DHT22;38223;50.940;4.034;2024-03-23T10:02:38;9.00;99.90
52267;DHT22;38223;50.940;4.034;2024-03-23T10:05:19;9.20;99.90
52267;DHT22;38223;50.940;4.034;2024-03-23T10:07:37;9.20;99.90
52267;DHT22;38223;50.940;4.034;2024-03-23T10:10:11;9.30;99.90
52267;DHT22;38223;50.940;4.034;2024-03-23T10:12:46;9.40;99.90
52267;DHT22;38223;50.940;4.034;2024-03-23T10:15:22;9.70;99.90
52267;DHT22;38223;50.940;4.034;2024-03-23T10:17:53;9.90;99.90
52267;DHT22;38223;50.940;4.034;2024-03-23T10:20:28;9.80;99.90
52267;DHT22;38223;50.940;4.034;2024-03-23T10:22:57;9.90;99.90
52267;DHT22;38223;50.940;4.034;2024-03-23T10:25:28;9.90;99.90
52267;DHT22;38223;50.940;4.034;2024-03-23T10:27:59;9.90;99.90
52267;DHT22;38223;50.940;4.034;2024-03-23T10:30:29;9.90;99.90
52267;DHT22;38223;50.940;4.034;2024-03-23T10:33:07;10.20;99.90
52267;DHT22;38223;50.940;4.034;2024-03-23T10:35:38;10.10;99.90
52267;DHT22;38223;50.940;4.034;2024-03-23T10:38:11;10.20;99.90
52267;DHT22;38223;50.940;4.034;2024-03-23T10:40:39;10.20;99.90
52267;DHT22;38223;50.940;4.034;2024-03-23T10:43:13;10.20;99.90
52267;DHT22;38223;50.940;4.034;2024-03-23T10:45:41;10.20;99.90
52267;DHT22;38223;50.940;4.034;2024-03-23T10:48:10;10.00;99.90
52267;DHT22;38223;50.940;4.034;2024-03-23T10:50:45;10.00;99.90
52267;DHT22;38223;50.940;4.034;2024-03-23T10:53:12;10.10;99.90
52267;DHT22;38223;50.940;4.034;2024-03-23T10:55:45;10.10;99.90
52267;DHT22;38223;50.940;4.034;2024-03-23T10:58:13;10.20;99.90
52267;DHT22;38223;50.940;4.034;2024-03-23T11:00:43;10.00;99.90
52267;DHT22;38223;50.940;4.034;2024-03-23T11:06:00;9.70;99.90
52267;DHT22;38223;50.940;4.034;2024-03-23T11:08:39;9.70;99.90
52267;DHT22;38223;50.940;4.034;2024-03-23T11:11:19;9.80;99.90
52267;DHT22;38223;50.940;4.034;2024-03-23T11:13:49;9.80;99.90
52267;DHT22;38223;50.940;4.034;2024-03-23T11:16:23;9.90;99.90
52267;DHT22;38223;50.940;4.034;2024-03-23T11:18:53;10.10;99.90
52267;DHT22;38223;50.940;4.034;2024-03-23T11:24:16;10.50;99.90
52267;DHT22;38223;50.940;4.034;2024-03-23T11:26:44;10.30;99.90
52267;DHT22;38223;50.940;4.034;2024-03-23T11:29:18;10.30;99.90
52267;DHT22;38223;50.940;4.034;2024-03-23T11:31:47;10.30;99.90
52267;DHT22;38223;50.940;4.034;2024-03-23T11:34:19;10.20;99.90
52267;DHT22;38223;50.940;4.034;2024-03-23T11:36:47;10.20;99.90
52267;DHT22;38223;50.940;4.034;2024-03-23T11:39:18;10.30;99.90
52267;DHT22;38223;50.940;4.034;2024-03-23T11:41:56;10.20;99.90
52267;DHT22;38223;50.940;4.034;2024-03-23T11:44:26;10.20;99.90
52267;DHT22;38223;50.940;4.034;2024-03-23T11:46:53;10.30;99.90
52267;DHT22;38223;50.940;4.034;2024-03-23T11:49:24;10.40;99.90
52267;DHT22;38223;50.940;4.034;2024-03-23T11:51:56;10.30;99.90
52267;DHT22;38223;50.940;4.034;2024-03-23T11:54:28;10.10;99.90
52267;DHT22;38223;50.940;4.034;2024-03-23T11:57:00;10.20;99.90
52267;DHT22;38223;50.940;4.034;2024-03-23T11:59:34;10.30;99.90
52267;DHT22;38223;50.940;4.034;2024-03-23T12:01:59;10.30;99.90
52267;DHT22;38223;50.940;4.034;2024-03-23T12:04:29;10.30;99.90
52267;DHT22;38223;50.940;4.034;2024-03-23T12:07:10;10.10;99.90
52267;DHT22;38223;50.940;4.034;2024-03-23T12:09:41;10.10;99.90
52267;DHT22;38223;50.940;4.034;2024-03-23T12:12:14;10.20;99.90
52267;DHT22;38223;50.940;4.034;2024-03-23T12:14:46;10.40;99.90
52267;DHT22;38223;50.940;4.034;2024-03-23T12:17:15;10.40;99.90
52267;DHT22;38223;50.940;4.034;2024-03-23T12:19:43;10.30;99.90
52267;DHT22;38223;50.940;4.034;2024-03-23T12:22:14;10.50;99.90
52267;DHT22;38223;50.940;4.034;2024-03-23T12:24:44;10.40;99.90
52267;DHT22;38223;50.940;4.034;2024-03-23T12:27:12;10.50;99.90
52267;DHT22;38223;50.940;4.034;2024-03-23T12:29:44;10.30;99.90
52267;DHT22;38223;50.940;4.034;2024-03-23T12:32:12;10.40;99.90
52267;DHT22;38223;50.940;4.034;2024-03-23T12:34:41;10.60;99.90
52267;DHT22;38223;50.940;4.034;2024-03-23T12:37:12;10.90;99.90
52267;DHT22;38223;50.940;4.034;2024-03-23T12:39:41;11.00;99.90
52267;DHT22;38223;50.940;4.034;2024-03-23T12:42:10;10.90;99.90
52267;DHT22;38223;50.940;4.034;2024-03-23T12:44:39;10.70;99.90
52267;DHT22;38223;50.940;4.034;2024-03-23T12:47:10;10.30;99.90
52267;DHT22;38223;50.940;4.034;2024-03-23T12:49:38;9.60;99.90
52267;DHT22;38223;50.940;4.034;2024-03-23T12:52:12;9.20;99.90
52267;DHT22;38223;50.940;4.034;2024-03-23T12:54:41;9.10;99.90
52267;DHT22;38223;50.940;4.034;2024-03-23T12:57:12;9.10;99.90
52267;DHT22;38223;50.940;4.034;2024-03-23T12:59:41;9.20;99.90
52267;DHT22;38223;50.940;4.034;2024-03-23T13:02:09;9.20;99.90
52267;DHT22;38223;50.940;4.034;2024-03-23T13:04:38;9.50;99.90
52267;DHT22;38223;50.940;4.034;2024-03-23T13:07:07;9.70;99.90
52267;DHT22;38223;50.940;4.034;2024-03-23T13:09:35;9.90;99.90
52267;DHT22;38223;50.940;4.034;2024-03-23T13:12:04;10.00;99.90
52267;DHT22;38223;50.940;4.034;2024-03-23T13:14:33;10.20;99.90
52267;DHT22;38223;50.940;4.034;2024-03-23T13:17:03;10.20;99.90
52267;DHT22;38223;50.940;4.034;2024-03-23T13:19:35;10.30;99.90
52267;DHT22;38223;50.940;4.034;2024-03-23T13:22:06;10.00;99.90
52267;DHT22;38223;50.940;4.034;2024-03-23T13:24:38;9.90;99.90
52267;DHT22;38223;50.940;4.034;2024-03-23T13:27:07;10.10;99.90
52267;DHT22;38223;50.940;4.034;2024-03-23T13:29:37;9.90;99.90
52267;DHT22;38223;50.940;4.034;2024-03-23T13:32:10;9.80;99.90
52267;DHT22;38223;50.940;4.034;2024-03-23T13:34:39;9.50;99.90
52267;DHT22;38223;50.940;4.034;2024-03-23T13:37:08;9.10;99.90
52267;DHT22;38223;50.940;4.034;2024-03-23T13:39:37;8.80;99.90
52267;DHT22;38223;50.940;4.034;2024-03-23T13:42:07;8.70;99.90
52267;DHT22;38223;50.940;4.034;2024-03-23T13:44:36;8.70;99.90
52267;DHT22;38223;50.940;4.034;2024-03-23T13:47:04;8.80;99.90
52267;DHT22;38223;50.940;4.034;2024-03-23T13:49:35;8.90;99.90
52267;DHT22;38223;50.940;4.034;2024-03-23T13:52:06;9.00;99.90
52267;DHT22;38223;50.940;4.034;2024-03-23T13:54:35;9.10;99.90
52267;DHT22;38223;50.940;4.034;2024-03-23T13:57:09;9.40;99.90
52267;DHT22;38223;50.940;4.034;2024-03-23T13:59:41;9.60;99.90
52267;DHT22;38223;50.940;4.034;2024-03-23T14:02:12;9.80;99.90
52267;DHT22;38223;50.940;4.034;2024-03-23T14:04:43;9.90;99.90
52267;DHT22;38223;50.940;4.034;2024-03-23T14:07:16;10.00;99.90
52267;DHT22;38223;50.940;4.034;2024-03-23T14:09:48;10.10;99.90
52267;DHT22;38223;50.940;4.034;2024-03-23T14:12:18;10.30;99.90
52267;DHT22;38223;50.940;4.034;2024-03-23T14:14:56;10.40;99.90
52267;DHT22;38223;50.940;4.034;2024-03-23T14:17:28;10.20;99.90
52267;DHT22;38223;50.940;4.034;2024-03-23T14:19:56;10.00;99.90
52267;DHT22;38223;50.940;4.034;2024-03-23T14:22:26;9.90;99.90
52267;DHT22;38223;50.940;4.034;2024-03-23T14:24:56;10.00;99.90
52267;DHT22;38223;50.940;4.034;2024-03-23T14:27:24;10.00;99.90
52267;DHT22;38223;50.940;4.034;2024-03-23T14:29:53;10.00;99.90
52267;DHT22;38223;50.940;4.034;2024-03-23T14:32:22;10.20;99.90
52267;DHT22;38223;50.940;4.034;2024-03-23T14:34:51;10.40;99.90
52267;DHT22;38223;50.940;4.034;2024-03-23T14:37:20;10.60;99.90
52267;DHT22;38223;50.940;4.034;2024-03-23T14:39:49;10.70;99.90
52267;DHT22;38223;50.940;4.034;2024-03-23T14:42:17;10.70;99.90
52267;DHT22;38223;50.940;4.034;2024-03-23T14:44:46;10.70;99.90
52267;DHT22;38223;50.940;4.034;2024-03-23T14:47:20;10.80;99.90
52267;DHT22;38223;50.940;4.034;2024-03-23T14:49:48;10.90;99.90
52267;DHT22;38223;50.940;4.034;2024-03-23T14:52:20;10.90;99.90
52267;DHT22;38223;50.940;4.034;2024-03-23T14:54:49;10.90;99.90
52267;DHT22;38223;50.940;4.034;2024-03-23T14:57:20;11.00;99.90
52267;DHT22;38223;50.940;4.034;2024-03-23T14:59:56;11.10;99.90
52267;DHT22;38223;50.940;4.034;2024-03-23T15:02:24;11.30;99.90
52267;DHT22;38223;50.940;4.034;2024-03-23T15:04:54;11.20;99.90
52267;DHT22;38223;50.940;4.034;2024-03-23T15:07:26;11.10;99.90
52267;DHT22;38223;50.940;4.034;2024-03-23T15:09:55;11.00;99.90
52267;DHT22;38223;50.940;4.034;2024-03-23T15:12:25;11.00;99.90
52267;DHT22;38223;50.940;4.034;2024-03-23T15:14:56;11.10;99.90
52267;DHT22;38223;50.940;4.034;2024-03-23T15:17:26;11.00;99.90
52267;DHT22;38223;50.940;4.034;2024-03-23T15:19:58;11.00;99.90
52267;DHT22;38223;50.940;4.034;2024-03-23T15:22:25;11.00;99.90
52267;DHT22;38223;50.940;4.034;2024-03-23T15:24:55;11.00;99.90
52267;DHT22;38223;50.940;4.034;2024-03-23T15:27:26;11.10;99.90
52267;DHT22;38223;50.940;4.034;2024-03-23T15:29:56;11.00;99.90
52267;DHT22;38223;50.940;4.034;2024-03-23T15:32:25;10.90;99.90
52267;DHT22;38223;50.940;4.034;2024-03-23T15:34:57;10.90;99.90
52267;DHT22;38223;50.940;4.034;2024-03-23T15:37:25;11.20;99.90
52267;DHT22;38223;50.940;4.034;2024-03-23T15:39:54;11.20;99.90
52267;DHT22;38223;50.940;4.034;2024-03-23T15:42:22;11.00;99.90
52267;DHT22;38223;50.940;4.034;2024-03-23T15:44:51;11.10;99.90
52267;DHT22;38223;50.940;4.034;2024-03-23T15:47:19;11.20;99.90
52267;DHT22;38223;50.940;4.034;2024-03-23T15:49:49;11.30;99.90
52267;DHT22;38223;50.940;4.034;2024-03-23T15:52:21;11.70;99.90
52267;DHT22;38223;50.940;4.034;2024-03-23T15:54:50;11.50;99.90
52267;DHT22;38223;50.940;4.034;2024-03-23T15:57:18;11.40;99.90
52267;DHT22;38223;50.940;4.034;2024-03-23T15:59:51;11.00;99.90
52267;DHT22;38223;50.940;4.034;2024-03-23T16:02:19;10.90;99.90
52267;DHT22;38223;50.940;4.034;2024-03-23T16:04:48;10.80;99.90
52267;DHT22;38223;50.940;4.034;2024-03-23T16:07:20;10.80;99.90
52267;DHT22;38223;50.940;4.034;2024-03-23T16:09:48;10.90;99.90
52267;DHT22;38223;50.940;4.034;2024-03-23T16:12:18;10.90;99.90
52267;DHT22;38223;50.940;4.034;2024-03-23T16:14:51;11.00;99.90
52267;DHT22;38223;50.940;4.034;2024-03-23T16:17:20;10.90;99.90
52267;DHT22;38223;50.940;4.034;2024-03-23T16:19:48;10.80;99.90
52267;DHT22;38223;50.940;4.034;2024-03-23T16:22:17;10.80;99.90
52267;DHT22;38223;50.940;4.034;2024-03-23T16:24:46;10.80;99.90
52267;DHT22;38223;50.940;4.034;2024-03-23T16:27:14;10.80;99.90
52267;DHT22;38223;50.940;4.034;2024-03-23T16:29:43;10.70;99.90
52267;DHT22;38223;50.940;4.034;2024-03-23T16:32:11;10.60;99.90
52267;DHT22;38223;50.940;4.034;2024-03-23T16:34:43;10.70;99.90
52267;DHT22;38223;50.940;4.034;2024-03-23T16:37:14;10.80;99.90
52267;DHT22;38223;50.940;4.034;2024-03-23T16:39:45;10.90;99.90
52267;DHT22;38223;50.940;4.034;2024-03-23T16:42:14;10.90;99.90
52267;DHT22;38223;50.940;4.034;2024-03-23T16:44:43;10.80;99.90
52267;DHT22;38223;50.940;4.034;2024-03-23T16:47:12;11.00;99.90
52267;DHT22;38223;50.940;4.034;2024-03-23T16:49:41;10.80;99.90
52267;DHT22;38223;50.940;4.034;2024-03-23T16:52:12;10.90;99.90
52267;DHT22;38223;50.940;4.034;2024-03-23T16:54:45;10.70;99.90